sensor_id;sensor_type;location;lat;lon;timestamp;P1;durP1;ratioP1;P2;durP2;ratioP2
59824;SDS011;45703;50.898;6.054;2022-11-20T00:00:55;19.30;;;10.13;;
59824;SDS011;45703;50.898;6.054;2022-11-20T00:03:21;19.05;;;10.13;;
59824;SDS011;45703;50.898;6.054;2022-11-20T00:05:47;18.80;;;10.05;;
59824;SDS011;45703;50.898;6.054;2022-11-20T00:08:13;18.60;;;10.52;;
59824;SDS011;45703;50.898;6.054;2022-11-20T00:10:39;20.20;;;10.65;;
59824;SDS011;45703;50.898;6.054;2022-11-20T00:13:05;18.10;;;10.20;;
59824;SDS011;45703;50.898;6.054;2022-11-20T00:15:31;19.05;;;10.52;;
59824;SDS011;45703;50.898;6.054;2022-11-20T00:17:56;20.02;;;10.93;;
59824;SDS011;45703;50.898;6.054;2022-11-20T00:20:22;19.00;;;10.50;;
59824;SDS011;45703;50.898;6.054;2022-11-20T00:22:47;19.42;;;10.50;;
59824;SDS011;45703;50.898;6.054;2022-11-20T00:25:13;19.23;;;10.00;;
59824;SDS011;45703;50.898;6.054;2022-11-20T00:27:38;19.20;;;10.02;;
59824;SDS011;45703;50.898;6.054;2022-11-20T00:30:04;18.35;;;9.80;;
59824;SDS011;45703;50.898;6.054;2022-11-20T00:32:30;20.65;;;10.85;;
59824;SDS011;45703;50.898;6.054;2022-11-20T00:34:55;23.23;;;11.00;;
59824;SDS011;45703;50.898;6.054;2022-11-20T00:37:21;19.92;;;11.45;;
59824;SDS011;45703;50.898;6.054;2022-11-20T00:39:46;20.65;;;10.48;;
59824;SDS011;45703;50.898;6.054;2022-11-20T00:42:11;20.00;;;10.60;;
59824;SDS011;45703;50.898;6.054;2022-11-20T00:44:37;20.27;;;10.35;;
59824;SDS011;45703;50.898;6.054;2022-11-20T00:47:02;21.02;;;10.55;;
59824;SDS011;45703;50.898;6.054;2022-11-20T00:49:28;19.90;;;10.65;;
59824;SDS011;45703;50.898;6.054;2022-11-20T00:51:53;19.52;;;10.60;;
59824;SDS011;45703;50.898;6.054;2022-11-20T00:54:18;20.50;;;11.50;;
59824;SDS011;45703;50.898;6.054;2022-11-20T00:56:44;18.33;;;10.02;;
59824;SDS011;45703;50.898;6.054;2022-11-20T00:59:09;21.08;;;10.38;;
59824;SDS011;45703;50.898;6.054;2022-11-20T01:01:35;19.33;;;11.43;;
59824;SDS011;45703;50.898;6.054;2022-11-20T01:04:02;21.10;;;11.10;;
59824;SDS011;45703;50.898;6.054;2022-11-20T01:09:04;20.77;;;11.45;;
59824;SDS011;45703;50.898;6.054;2022-11-20T01:11:32;21.17;;;10.75;;
59824;SDS011;45703;50.898;6.054;2022-11-20T01:14:00;20.67;;;11.70;;
59824;SDS011;45703;50.898;6.054;2022-11-20T01:16:28;20.38;;;10.23;;
59824;SDS011;45703;50.898;6.054;2022-11-20T01:18:56;20.05;;;10.05;;
59824;SDS011;45703;50.898;6.054;2022-11-20T01:21:24;19.20;;;10.50;;
59824;SDS011;45703;50.898;6.054;2022-11-20T01:23:52;20.73;;;10.70;;
59824;SDS011;45703;50.898;6.054;2022-11-20T01:26:21;19.40;;;11.10;;
59824;SDS011;45703;50.898;6.054;2022-11-20T01:28:49;19.60;;;10.88;;
59824;SDS011;45703;50.898;6.054;2022-11-20T01:33:44;19.83;;;11.45;;
59824;SDS011;45703;50.898;6.054;2022-11-20T01:36:11;18.85;;;10.00;;
59824;SDS011;45703;50.898;6.054;2022-11-20T01:38:37;19.15;;;10.57;;
59824;SDS011;45703;50.898;6.054;2022-11-20T01:41:02;20.15;;;10.70;;
59824;SDS011;45703;50.898;6.054;2022-11-20T01:43:28;18.23;;;10.57;;
59824;SDS011;45703;50.898;6.054;2022-11-20T01:48:22;17.83;;;10.30;;
59824;SDS011;45703;50.898;6.054;2022-11-20T01:50:51;18.58;;;10.38;;
59824;SDS011;45703;50.898;6.054;2022-11-20T01:53:18;20.65;;;11.23;;
59824;SDS011;45703;50.898;6.054;2022-11-20T01:55:50;18.10;;;10.55;;
59824;SDS011;45703;50.898;6.054;2022-11-20T01:58:22;20.08;;;10.40;;
59824;SDS011;45703;50.898;6.054;2022-11-20T02:00:53;17.70;;;9.90;;
59824;SDS011;45703;50.898;6.054;2022-11-20T02:03:19;20.17;;;10.63;;
59824;SDS011;45703;50.898;6.054;2022-11-20T02:08:27;17.77;;;10.45;;
59824;SDS011;45703;50.898;6.054;2022-11-20T02:10:53;19.95;;;10.68;;
59824;SDS011;45703;50.898;6.054;2022-11-20T02:13:18;17.92;;;10.35;;
59824;SDS011;45703;50.898;6.054;2022-11-20T02:16:02;18.58;;;10.35;;
59824;SDS011;45703;50.898;6.054;2022-11-20T02:18:28;17.13;;;9.68;;
59824;SDS011;45703;50.898;6.054;2022-11-20T02:20:55;17.98;;;10.00;;
59824;SDS011;45703;50.898;6.054;2022-11-20T02:26:06;18.80;;;9.73;;
59824;SDS011;45703;50.898;6.054;2022-11-20T02:28:35;17.80;;;9.68;;
59824;SDS011;45703;50.898;6.054;2022-11-20T02:31:01;19.52;;;9.98;;
59824;SDS011;45703;50.898;6.054;2022-11-20T02:33:26;20.38;;;10.68;;
59824;SDS011;45703;50.898;6.054;2022-11-20T02:35:52;19.60;;;10.32;;
59824;SDS011;45703;50.898;6.054;2022-11-20T02:38:17;21.00;;;10.68;;
59824;SDS011;45703;50.898;6.054;2022-11-20T02:40:43;21.98;;;11.48;;
59824;SDS011;45703;50.898;6.054;2022-11-20T02:43:08;23.40;;;11.57;;
59824;SDS011;45703;50.898;6.054;2022-11-20T02:45:34;20.35;;;10.52;;
59824;SDS011;45703;50.898;6.054;2022-11-20T02:48:00;20.20;;;11.23;;
59824;SDS011;45703;50.898;6.054;2022-11-20T02:50:25;23.80;;;11.95;;
59824;SDS011;45703;50.898;6.054;2022-11-20T02:52:51;21.52;;;11.45;;
59824;SDS011;45703;50.898;6.054;2022-11-20T02:55:16;23.38;;;11.80;;
59824;SDS011;45703;50.898;6.054;2022-11-20T02:57:41;23.02;;;11.40;;
59824;SDS011;45703;50.898;6.054;2022-11-20T03:00:07;21.48;;;11.18;;
59824;SDS011;45703;50.898;6.054;2022-11-20T03:02:33;23.92;;;11.40;;
59824;SDS011;45703;50.898;6.054;2022-11-20T03:04:58;23.45;;;12.23;;
59824;SDS011;45703;50.898;6.054;2022-11-20T03:07:24;22.50;;;11.63;;
59824;SDS011;45703;50.898;6.054;2022-11-20T03:09:49;22.48;;;11.75;;
59824;SDS011;45703;50.898;6.054;2022-11-20T03:12:15;24.77;;;12.38;;
59824;SDS011;45703;50.898;6.054;2022-11-20T03:14:40;27.45;;;13.43;;
59824;SDS011;45703;50.898;6.054;2022-11-20T03:17:05;23.30;;;11.88;;
59824;SDS011;45703;50.898;6.054;2022-11-20T03:19:31;24.35;;;12.18;;
59824;SDS011;45703;50.898;6.054;2022-11-20T03:21:56;24.90;;;12.38;;
59824;SDS011;45703;50.898;6.054;2022-11-20T03:24:22;24.05;;;12.13;;
59824;SDS011;45703;50.898;6.054;2022-11-20T03:26:47;22.85;;;12.50;;
59824;SDS011;45703;50.898;6.054;2022-11-20T03:29:12;22.13;;;11.38;;
59824;SDS011;45703;50.898;6.054;2022-11-20T03:31:39;22.60;;;11.73;;
59824;SDS011;45703;50.898;6.054;2022-11-20T03:34:05;23.50;;;12.90;;
59824;SDS011;45703;50.898;6.054;2022-11-20T03:36:31;23.20;;;12.43;;
59824;SDS011;45703;50.898;6.054;2022-11-20T03:38:57;23.60;;;12.30;;
59824;SDS011;45703;50.898;6.054;2022-11-20T03:41:27;21.88;;;11.88;;
59824;SDS011;45703;50.898;6.054;2022-11-20T03:43:56;23.48;;;12.73;;
59824;SDS011;45703;50.898;6.054;2022-11-20T03:46:26;21.30;;;12.05;;
59824;SDS011;45703;50.898;6.054;2022-11-20T03:48:52;21.80;;;13.00;;
59824;SDS011;45703;50.898;6.054;2022-11-20T03:53:45;19.90;;;11.65;;
59824;SDS011;45703;50.898;6.054;2022-11-20T03:56:13;23.30;;;12.02;;
59824;SDS011;45703;50.898;6.054;2022-11-20T03:58:40;23.23;;;13.45;;
59824;SDS011;45703;50.898;6.054;2022-11-20T04:01:06;20.65;;;11.98;;
59824;SDS011;45703;50.898;6.054;2022-11-20T04:03:33;21.02;;;12.05;;
59824;SDS011;45703;50.898;6.054;2022-11-20T04:06:09;20.73;;;11.55;;
59824;SDS011;45703;50.898;6.054;2022-11-20T04:08:36;23.20;;;12.10;;
59824;SDS011;45703;50.898;6.054;2022-11-20T04:11:08;23.75;;;12.45;;
59824;SDS011;45703;50.898;6.054;2022-11-20T04:13:47;20.42;;;11.38;;
59824;SDS011;45703;50.898;6.054;2022-11-20T04:16:15;22.15;;;11.32;;
59824;SDS011;45703;50.898;6.054;2022-11-20T04:18:41;21.35;;;12.02;;
59824;SDS011;45703;50.898;6.054;2022-11-20T04:21:06;20.95;;;10.95;;
59824;SDS011;45703;50.898;6.054;2022-11-20T04:23:32;19.98;;;10.52;;
59824;SDS011;45703;50.898;6.054;2022-11-20T04:26:05;22.35;;;11.57;;
59824;SDS011;45703;50.898;6.054;2022-11-20T04:28:31;23.48;;;12.50;;
59824;SDS011;45703;50.898;6.054;2022-11-20T04:33:38;19.95;;;10.77;;
59824;SDS011;45703;50.898;6.054;2022-11-20T04:36:09;23.75;;;13.32;;
59824;SDS011;45703;50.898;6.054;2022-11-20T04:38:38;18.73;;;10.65;;
59824;SDS011;45703;50.898;6.054;2022-11-20T04:41:04;20.30;;;11.43;;
59824;SDS011;45703;50.898;6.054;2022-11-20T04:43:31;18.38;;;10.68;;
59824;SDS011;45703;50.898;6.054;2022-11-20T04:45:58;21.35;;;12.05;;
59824;SDS011;45703;50.898;6.054;2022-11-20T04:48:24;22.92;;;11.95;;
59824;SDS011;45703;50.898;6.054;2022-11-20T04:50:54;21.05;;;12.23;;
59824;SDS011;45703;50.898;6.054;2022-11-20T04:53:19;21.65;;;11.23;;
59824;SDS011;45703;50.898;6.054;2022-11-20T04:55:46;20.02;;;11.32;;
59824;SDS011;45703;50.898;6.054;2022-11-20T04:58:11;23.30;;;12.90;;
59824;SDS011;45703;50.898;6.054;2022-11-20T05:00:38;20.45;;;11.30;;
59824;SDS011;45703;50.898;6.054;2022-11-20T05:03:03;21.70;;;12.10;;
59824;SDS011;45703;50.898;6.054;2022-11-20T05:05:29;21.77;;;12.13;;
59824;SDS011;45703;50.898;6.054;2022-11-20T05:07:58;22.45;;;11.77;;
59824;SDS011;45703;50.898;6.054;2022-11-20T05:10:24;26.38;;;13.18;;
59824;SDS011;45703;50.898;6.054;2022-11-20T05:12:50;22.23;;;11.38;;
59824;SDS011;45703;50.898;6.054;2022-11-20T05:15:16;24.42;;;12.18;;
59824;SDS011;45703;50.898;6.054;2022-11-20T05:17:46;25.38;;;12.77;;
59824;SDS011;45703;50.898;6.054;2022-11-20T05:20:12;23.67;;;12.77;;
59824;SDS011;45703;50.898;6.054;2022-11-20T05:22:37;24.48;;;14.20;;
59824;SDS011;45703;50.898;6.054;2022-11-20T05:25:03;26.85;;;13.25;;
59824;SDS011;45703;50.898;6.054;2022-11-20T05:27:28;23.13;;;12.15;;
59824;SDS011;45703;50.898;6.054;2022-11-20T05:29:54;24.25;;;12.80;;
59824;SDS011;45703;50.898;6.054;2022-11-20T05:32:19;24.00;;;12.55;;
59824;SDS011;45703;50.898;6.054;2022-11-20T05:34:44;23.15;;;11.98;;
59824;SDS011;45703;50.898;6.054;2022-11-20T05:37:10;23.42;;;12.32;;
59824;SDS011;45703;50.898;6.054;2022-11-20T05:39:35;21.92;;;11.77;;
59824;SDS011;45703;50.898;6.054;2022-11-20T05:42:00;24.83;;;13.65;;
59824;SDS011;45703;50.898;6.054;2022-11-20T05:44:44;23.58;;;12.63;;
59824;SDS011;45703;50.898;6.054;2022-11-20T05:47:09;28.48;;;13.45;;
59824;SDS011;45703;50.898;6.054;2022-11-20T05:49:35;31.15;;;15.23;;
59824;SDS011;45703;50.898;6.054;2022-11-20T05:52:00;31.52;;;15.07;;
59824;SDS011;45703;50.898;6.054;2022-11-20T05:54:25;36.00;;;15.93;;
59824;SDS011;45703;50.898;6.054;2022-11-20T05:56:51;36.45;;;16.23;;
59824;SDS011;45703;50.898;6.054;2022-11-20T05:59:16;35.60;;;16.48;;
59824;SDS011;45703;50.898;6.054;2022-11-20T06:01:42;35.33;;;16.45;;
59824;SDS011;45703;50.898;6.054;2022-11-20T06:04:07;36.90;;;15.18;;
59824;SDS011;45703;50.898;6.054;2022-11-20T06:06:32;27.65;;;14.07;;
59824;SDS011;45703;50.898;6.054;2022-11-20T06:08:58;31.25;;;15.23;;
59824;SDS011;45703;50.898;6.054;2022-11-20T06:11:24;32.38;;;15.02;;
59824;SDS011;45703;50.898;6.054;2022-11-20T06:13:50;30.85;;;14.32;;
59824;SDS011;45703;50.898;6.054;2022-11-20T06:16:17;29.23;;;14.18;;
59824;SDS011;45703;50.898;6.054;2022-11-20T06:18:44;31.65;;;14.50;;
59824;SDS011;45703;50.898;6.054;2022-11-20T06:21:14;29.45;;;14.68;;
59824;SDS011;45703;50.898;6.054;2022-11-20T06:23:41;33.15;;;15.43;;
59824;SDS011;45703;50.898;6.054;2022-11-20T06:26:11;28.98;;;15.00;;
59824;SDS011;45703;50.898;6.054;2022-11-20T06:28:38;26.80;;;14.05;;
59824;SDS011;45703;50.898;6.054;2022-11-20T06:31:04;30.40;;;14.00;;
59824;SDS011;45703;50.898;6.054;2022-11-20T06:33:31;26.15;;;12.63;;
59824;SDS011;45703;50.898;6.054;2022-11-20T06:35:57;28.40;;;14.30;;
59824;SDS011;45703;50.898;6.054;2022-11-20T06:38:27;27.20;;;13.82;;
59824;SDS011;45703;50.898;6.054;2022-11-20T06:40:53;27.85;;;14.43;;
59824;SDS011;45703;50.898;6.054;2022-11-20T06:43:19;30.83;;;15.57;;
59824;SDS011;45703;50.898;6.054;2022-11-20T06:45:44;24.95;;;12.65;;
59824;SDS011;45703;50.898;6.054;2022-11-20T06:48:09;27.27;;;13.07;;
59824;SDS011;45703;50.898;6.054;2022-11-20T06:50:38;26.58;;;13.25;;
59824;SDS011;45703;50.898;6.054;2022-11-20T06:53:03;26.23;;;12.52;;
59824;SDS011;45703;50.898;6.054;2022-11-20T06:55:30;22.90;;;11.90;;
59824;SDS011;45703;50.898;6.054;2022-11-20T06:57:56;25.98;;;11.57;;
59824;SDS011;45703;50.898;6.054;2022-11-20T07:00:21;22.50;;;12.63;;
59824;SDS011;45703;50.898;6.054;2022-11-20T07:02:46;23.40;;;11.45;;
59824;SDS011;45703;50.898;6.054;2022-11-20T07:05:12;22.02;;;11.57;;
59824;SDS011;45703;50.898;6.054;2022-11-20T07:07:37;23.05;;;11.20;;
59824;SDS011;45703;50.898;6.054;2022-11-20T07:10:03;22.88;;;11.57;;
59824;SDS011;45703;50.898;6.054;2022-11-20T07:12:29;22.27;;;10.75;;
59824;SDS011;45703;50.898;6.054;2022-11-20T07:14:54;23.23;;;11.77;;
59824;SDS011;45703;50.898;6.054;2022-11-20T07:17:19;22.67;;;10.88;;
59824;SDS011;45703;50.898;6.054;2022-11-20T07:19:45;22.83;;;10.25;;
59824;SDS011;45703;50.898;6.054;2022-11-20T07:22:10;20.40;;;10.35;;
59824;SDS011;45703;50.898;6.054;2022-11-20T07:24:36;22.05;;;9.82;;
59824;SDS011;45703;50.898;6.054;2022-11-20T07:27:01;23.50;;;11.27;;
59824;SDS011;45703;50.898;6.054;2022-11-20T07:29:26;21.55;;;11.20;;
59824;SDS011;45703;50.898;6.054;2022-11-20T07:31:52;23.88;;;12.57;;
59824;SDS011;45703;50.898;6.054;2022-11-20T07:34:17;26.27;;;12.32;;
59824;SDS011;45703;50.898;6.054;2022-11-20T07:36:42;28.27;;;13.20;;
59824;SDS011;45703;50.898;6.054;2022-11-20T07:39:08;22.00;;;11.45;;
59824;SDS011;45703;50.898;6.054;2022-11-20T07:41:33;22.10;;;10.45;;
59824;SDS011;45703;50.898;6.054;2022-11-20T07:43:58;25.05;;;12.13;;
59824;SDS011;45703;50.898;6.054;2022-11-20T07:46:24;27.58;;;13.00;;
59824;SDS011;45703;50.898;6.054;2022-11-20T07:48:49;22.75;;;11.90;;
59824;SDS011;45703;50.898;6.054;2022-11-20T07:51:14;24.08;;;11.30;;
59824;SDS011;45703;50.898;6.054;2022-11-20T07:53:40;21.38;;;10.90;;
59824;SDS011;45703;50.898;6.054;2022-11-20T07:56:05;23.67;;;11.32;;
59824;SDS011;45703;50.898;6.054;2022-11-20T07:58:31;22.13;;;10.80;;
59824;SDS011;45703;50.898;6.054;2022-11-20T08:01:02;24.80;;;12.90;;
59824;SDS011;45703;50.898;6.054;2022-11-20T08:03:31;24.92;;;11.95;;
59824;SDS011;45703;50.898;6.054;2022-11-20T08:06:01;25.13;;;11.70;;
59824;SDS011;45703;50.898;6.054;2022-11-20T08:08:27;28.63;;;14.35;;
59824;SDS011;45703;50.898;6.054;2022-11-20T08:10:52;23.20;;;12.35;;
59824;SDS011;45703;50.898;6.054;2022-11-20T08:13:38;28.52;;;13.10;;
59824;SDS011;45703;50.898;6.054;2022-11-20T08:16:21;23.38;;;11.95;;
59824;SDS011;45703;50.898;6.054;2022-11-20T08:18:47;25.13;;;12.32;;
59824;SDS011;45703;50.898;6.054;2022-11-20T08:21:12;29.40;;;13.63;;
59824;SDS011;45703;50.898;6.054;2022-11-20T08:23:37;24.58;;;11.93;;
59824;SDS011;45703;50.898;6.054;2022-11-20T08:26:03;31.23;;;13.32;;
59824;SDS011;45703;50.898;6.054;2022-11-20T08:28:28;26.92;;;11.63;;
59824;SDS011;45703;50.898;6.054;2022-11-20T08:30:57;29.85;;;12.93;;
59824;SDS011;45703;50.898;6.054;2022-11-20T08:33:24;25.77;;;12.57;;
59824;SDS011;45703;50.898;6.054;2022-11-20T08:35:49;26.17;;;12.57;;
59824;SDS011;45703;50.898;6.054;2022-11-20T08:38:15;27.20;;;11.98;;
59824;SDS011;45703;50.898;6.054;2022-11-20T08:40:40;26.75;;;12.43;;
59824;SDS011;45703;50.898;6.054;2022-11-20T08:43:05;25.15;;;12.45;;
59824;SDS011;45703;50.898;6.054;2022-11-20T08:45:31;27.85;;;12.77;;
59824;SDS011;45703;50.898;6.054;2022-11-20T08:47:59;27.33;;;12.82;;
59824;SDS011;45703;50.898;6.054;2022-11-20T08:50:25;25.17;;;12.05;;
59824;SDS011;45703;50.898;6.054;2022-11-20T08:52:51;25.58;;;12.52;;
59824;SDS011;45703;50.898;6.054;2022-11-20T08:55:16;24.70;;;12.20;;
59824;SDS011;45703;50.898;6.054;2022-11-20T08:57:41;25.75;;;12.60;;
59824;SDS011;45703;50.898;6.054;2022-11-20T09:00:07;26.70;;;12.15;;
59824;SDS011;45703;50.898;6.054;2022-11-20T09:02:33;28.45;;;13.38;;
59824;SDS011;45703;50.898;6.054;2022-11-20T09:04:59;25.85;;;12.85;;
59824;SDS011;45703;50.898;6.054;2022-11-20T09:07:24;30.45;;;13.15;;
59824;SDS011;45703;50.898;6.054;2022-11-20T09:09:49;24.92;;;12.43;;
59824;SDS011;45703;50.898;6.054;2022-11-20T09:12:15;24.70;;;12.88;;
59824;SDS011;45703;50.898;6.054;2022-11-20T09:14:40;27.92;;;13.18;;
59824;SDS011;45703;50.898;6.054;2022-11-20T09:17:06;25.90;;;12.90;;
59824;SDS011;45703;50.898;6.054;2022-11-20T09:19:32;26.58;;;12.38;;
59824;SDS011;45703;50.898;6.054;2022-11-20T09:21:58;25.67;;;13.50;;
59824;SDS011;45703;50.898;6.054;2022-11-20T09:24:25;25.17;;;12.70;;
59824;SDS011;45703;50.898;6.054;2022-11-20T09:26:50;26.95;;;12.45;;
59824;SDS011;45703;50.898;6.054;2022-11-20T09:29:16;28.38;;;12.57;;
59824;SDS011;45703;50.898;6.054;2022-11-20T09:31:41;25.77;;;12.70;;
59824;SDS011;45703;50.898;6.054;2022-11-20T09:34:06;24.45;;;12.00;;
59824;SDS011;45703;50.898;6.054;2022-11-20T09:36:32;23.90;;;12.18;;
59824;SDS011;45703;50.898;6.054;2022-11-20T09:38:57;26.65;;;11.88;;
59824;SDS011;45703;50.898;6.054;2022-11-20T09:44:29;25.15;;;12.43;;
59824;SDS011;45703;50.898;6.054;2022-11-20T09:47:05;24.20;;;12.45;;
59824;SDS011;45703;50.898;6.054;2022-11-20T09:55:38;24.45;;;11.30;;
59824;SDS011;45703;50.898;6.054;2022-11-20T09:58:11;22.40;;;11.68;;
59824;SDS011;45703;50.898;6.054;2022-11-20T10:00:41;24.05;;;11.80;;
59824;SDS011;45703;50.898;6.054;2022-11-20T10:06:18;23.35;;;11.27;;
59824;SDS011;45703;50.898;6.054;2022-11-20T10:24:56;23.58;;;10.98;;
59824;SDS011;45703;50.898;6.054;2022-11-20T10:30:13;26.92;;;12.68;;
59824;SDS011;45703;50.898;6.054;2022-11-20T10:33:04;26.20;;;12.70;;
59824;SDS011;45703;50.898;6.054;2022-11-20T10:38:00;24.75;;;11.25;;
59824;SDS011;45703;50.898;6.054;2022-11-20T10:40:38;23.02;;;12.20;;
59824;SDS011;45703;50.898;6.054;2022-11-20T10:43:14;25.25;;;11.80;;
59824;SDS011;45703;50.898;6.054;2022-11-20T10:48:21;25.10;;;12.65;;
59824;SDS011;45703;50.898;6.054;2022-11-20T10:58:59;28.52;;;12.60;;
59824;SDS011;45703;50.898;6.054;2022-11-20T11:01:29;26.33;;;12.38;;
59824;SDS011;45703;50.898;6.054;2022-11-20T11:03:55;29.67;;;12.45;;
59824;SDS011;45703;50.898;6.054;2022-11-20T11:09:00;23.85;;;11.32;;
59824;SDS011;45703;50.898;6.054;2022-11-20T11:11:30;24.40;;;11.02;;
59824;SDS011;45703;50.898;6.054;2022-11-20T11:14:14;25.05;;;12.02;;
59824;SDS011;45703;50.898;6.054;2022-11-20T11:16:56;23.42;;;11.43;;
59824;SDS011;45703;50.898;6.054;2022-11-20T11:19:22;27.70;;;12.45;;
59824;SDS011;45703;50.898;6.054;2022-11-20T11:21:49;24.02;;;11.00;;
59824;SDS011;45703;50.898;6.054;2022-11-20T11:26:51;26.90;;;12.55;;
59824;SDS011;45703;50.898;6.054;2022-11-20T11:29:20;25.85;;;11.75;;
59824;SDS011;45703;50.898;6.054;2022-11-20T11:31:45;26.50;;;12.30;;
59824;SDS011;45703;50.898;6.054;2022-11-20T11:34:25;23.65;;;11.15;;
59824;SDS011;45703;50.898;6.054;2022-11-20T11:37:13;22.88;;;11.13;;
59824;SDS011;45703;50.898;6.054;2022-11-20T11:39:42;24.52;;;12.40;;
59824;SDS011;45703;50.898;6.054;2022-11-20T11:42:11;26.40;;;13.50;;
59824;SDS011;45703;50.898;6.054;2022-11-20T11:44:44;25.50;;;11.60;;
59824;SDS011;45703;50.898;6.054;2022-11-20T11:47:30;22.02;;;11.20;;
59824;SDS011;45703;50.898;6.054;2022-11-20T12:01:04;26.92;;;11.50;;
59824;SDS011;45703;50.898;6.054;2022-11-20T12:03:39;24.60;;;11.40;;
59824;SDS011;45703;50.898;6.054;2022-11-20T12:06:14;23.02;;;11.75;;
59824;SDS011;45703;50.898;6.054;2022-11-20T12:08:46;24.65;;;11.68;;
59824;SDS011;45703;50.898;6.054;2022-11-20T12:11:20;24.45;;;11.43;;
59824;SDS011;45703;50.898;6.054;2022-11-20T12:13:56;22.83;;;11.32;;
59824;SDS011;45703;50.898;6.054;2022-11-20T12:16:26;25.48;;;11.65;;
59824;SDS011;45703;50.898;6.054;2022-11-20T12:18:52;22.67;;;11.48;;
59824;SDS011;45703;50.898;6.054;2022-11-20T12:21:28;25.90;;;11.85;;
59824;SDS011;45703;50.898;6.054;2022-11-20T12:31:54;24.33;;;12.85;;
59824;SDS011;45703;50.898;6.054;2022-11-20T12:34:32;23.23;;;12.73;;
59824;SDS011;45703;50.898;6.054;2022-11-20T12:39:56;20.58;;;11.20;;
59824;SDS011;45703;50.898;6.054;2022-11-20T12:45:33;23.88;;;11.63;;
59824;SDS011;45703;50.898;6.054;2022-11-20T12:48:28;22.02;;;10.23;;
59824;SDS011;45703;50.898;6.054;2022-11-20T13:05:17;14.93;;;6.50;;
59824;SDS011;45703;50.898;6.054;2022-11-20T13:07:44;12.48;;;5.90;;
59824;SDS011;45703;50.898;6.054;2022-11-20T13:10:15;14.38;;;6.13;;
59824;SDS011;45703;50.898;6.054;2022-11-20T13:12:48;11.55;;;5.20;;
59824;SDS011;45703;50.898;6.054;2022-11-20T13:15:36;12.35;;;5.13;;
59824;SDS011;45703;50.898;6.054;2022-11-20T13:18:11;11.23;;;4.68;;
59824;SDS011;45703;50.898;6.054;2022-11-20T13:20:43;9.38;;;4.40;;
59824;SDS011;45703;50.898;6.054;2022-11-20T13:23:09;11.53;;;4.87;;
59824;SDS011;45703;50.898;6.054;2022-11-20T13:25:36;9.38;;;4.28;;
59824;SDS011;45703;50.898;6.054;2022-11-20T13:30:35;10.55;;;4.57;;
59824;SDS011;45703;50.898;6.054;2022-11-20T13:33:09;9.85;;;4.30;;
59824;SDS011;45703;50.898;6.054;2022-11-20T13:35:59;10.95;;;4.38;;
59824;SDS011;45703;50.898;6.054;2022-11-20T13:38:26;9.70;;;4.43;;
59824;SDS011;45703;50.898;6.054;2022-11-20T13:46:09;8.02;;;3.28;;
59824;SDS011;45703;50.898;6.054;2022-11-20T13:48:39;9.82;;;3.20;;
59824;SDS011;45703;50.898;6.054;2022-11-20T13:51:21;8.18;;;3.40;;
59824;SDS011;45703;50.898;6.054;2022-11-20T14:02:18;9.60;;;3.30;;
59824;SDS011;45703;50.898;6.054;2022-11-20T14:04:46;9.00;;;3.35;;
59824;SDS011;45703;50.898;6.054;2022-11-20T14:07:14;7.45;;;3.15;;
59824;SDS011;45703;50.898;6.054;2022-11-20T14:09:49;7.47;;;2.92;;
59824;SDS011;45703;50.898;6.054;2022-11-20T14:12:18;8.48;;;3.00;;
59824;SDS011;45703;50.898;6.054;2022-11-20T14:14:49;6.65;;;2.58;;
59824;SDS011;45703;50.898;6.054;2022-11-20T14:19:53;6.13;;;2.25;;
59824;SDS011;45703;50.898;6.054;2022-11-20T14:22:26;6.97;;;1.90;;
59824;SDS011;45703;50.898;6.054;2022-11-20T14:27:37;6.35;;;1.80;;
59824;SDS011;45703;50.898;6.054;2022-11-20T14:30:04;5.47;;;1.33;;
59824;SDS011;45703;50.898;6.054;2022-11-20T14:32:30;6.10;;;1.50;;
59824;SDS011;45703;50.898;6.054;2022-11-20T14:34:59;5.93;;;1.40;;
59824;SDS011;45703;50.898;6.054;2022-11-20T14:37:33;4.82;;;1.30;;
59824;SDS011;45703;50.898;6.054;2022-11-20T14:40:01;5.03;;;2.28;;
59824;SDS011;45703;50.898;6.054;2022-11-20T14:42:27;5.70;;;1.58;;
59824;SDS011;45703;50.898;6.054;2022-11-20T14:44:57;5.65;;;1.63;;
59824;SDS011;45703;50.898;6.054;2022-11-20T14:47:30;8.00;;;2.13;;
59824;SDS011;45703;50.898;6.054;2022-11-20T14:49:56;5.70;;;1.90;;
59824;SDS011;45703;50.898;6.054;2022-11-20T14:52:25;7.07;;;2.05;;
59824;SDS011;45703;50.898;6.054;2022-11-20T14:54:58;7.05;;;2.05;;
59824;SDS011;45703;50.898;6.054;2022-11-20T14:57:28;4.70;;;1.55;;
59824;SDS011;45703;50.898;6.054;2022-11-20T15:00:04;5.60;;;1.80;;
59824;SDS011;45703;50.898;6.054;2022-11-20T15:02:39;6.15;;;1.80;;
59824;SDS011;45703;50.898;6.054;2022-11-20T15:05:09;5.75;;;2.15;;
59824;SDS011;45703;50.898;6.054;2022-11-20T15:07:35;7.07;;;2.05;;
59824;SDS011;45703;50.898;6.054;2022-11-20T15:10:10;6.60;;;2.15;;
59824;SDS011;45703;50.898;6.054;2022-11-20T15:12:38;5.18;;;1.95;;
59824;SDS011;45703;50.898;6.054;2022-11-20T15:15:10;5.57;;;2.00;;
59824;SDS011;45703;50.898;6.054;2022-11-20T15:17:39;5.70;;;1.90;;
59824;SDS011;45703;50.898;6.054;2022-11-20T15:20:09;5.78;;;1.90;;
59824;SDS011;45703;50.898;6.054;2022-11-20T15:22:38;5.20;;;1.88;;
59824;SDS011;45703;50.898;6.054;2022-11-20T15:25:16;6.65;;;2.10;;
59824;SDS011;45703;50.898;6.054;2022-11-20T15:27:43;6.18;;;1.98;;
59824;SDS011;45703;50.898;6.054;2022-11-20T15:30:16;7.90;;;2.10;;
59824;SDS011;45703;50.898;6.054;2022-11-20T15:32:43;7.07;;;1.95;;
59824;SDS011;45703;50.898;6.054;2022-11-20T15:35:10;6.35;;;2.03;;
59824;SDS011;45703;50.898;6.054;2022-11-20T15:37:39;6.65;;;2.25;;
59824;SDS011;45703;50.898;6.054;2022-11-20T15:40:05;6.93;;;1.73;;
59824;SDS011;45703;50.898;6.054;2022-11-20T15:42:32;5.38;;;1.90;;
59824;SDS011;45703;50.898;6.054;2022-11-20T15:44:58;6.25;;;2.05;;
59824;SDS011;45703;50.898;6.054;2022-11-20T15:47:26;5.53;;;2.00;;
59824;SDS011;45703;50.898;6.054;2022-11-20T15:49:55;6.43;;;2.10;;
59824;SDS011;45703;50.898;6.054;2022-11-20T15:52:20;6.20;;;2.20;;
59824;SDS011;45703;50.898;6.054;2022-11-20T15:54:46;6.70;;;2.20;;
59824;SDS011;45703;50.898;6.054;2022-11-20T15:57:12;5.80;;;1.85;;
59824;SDS011;45703;50.898;6.054;2022-11-20T15:59:38;5.90;;;1.73;;
59824;SDS011;45703;50.898;6.054;2022-11-20T16:02:12;4.97;;;1.75;;
59824;SDS011;45703;50.898;6.054;2022-11-20T16:04:39;6.00;;;1.80;;
59824;SDS011;45703;50.898;6.054;2022-11-20T16:07:04;6.30;;;2.20;;
59824;SDS011;45703;50.898;6.054;2022-11-20T16:09:29;4.97;;;1.70;;
59824;SDS011;45703;50.898;6.054;2022-11-20T16:11:55;6.00;;;1.70;;
59824;SDS011;45703;50.898;6.054;2022-11-20T16:14:20;4.93;;;2.10;;
59824;SDS011;45703;50.898;6.054;2022-11-20T16:17:04;5.60;;;1.80;;
59824;SDS011;45703;50.898;6.054;2022-11-20T16:19:29;5.20;;;1.80;;
59824;SDS011;45703;50.898;6.054;2022-11-20T16:21:57;6.13;;;1.85;;
59824;SDS011;45703;50.898;6.054;2022-11-20T16:24:23;7.65;;;1.88;;
59824;SDS011;45703;50.898;6.054;2022-11-20T16:26:48;6.97;;;1.92;;
59824;SDS011;45703;50.898;6.054;2022-11-20T16:29:13;5.55;;;1.77;;
59824;SDS011;45703;50.898;6.054;2022-11-20T16:31:39;4.40;;;1.50;;
59824;SDS011;45703;50.898;6.054;2022-11-20T16:34:05;5.32;;;1.52;;
59824;SDS011;45703;50.898;6.054;2022-11-20T16:36:31;4.30;;;1.40;;
59824;SDS011;45703;50.898;6.054;2022-11-20T16:38:58;3.88;;;1.30;;
59824;SDS011;45703;50.898;6.054;2022-11-20T16:41:25;5.18;;;1.60;;